Time;durP1;ratioP1;P1;durP2;ratioP2;P2;SDS_P1;SDS_P2;PMS_P1;PMS_P2;Temp;Humidity;BMP_temperature;BMP_pressure;BME280_temperature;BME280_humidity;BME280_pressure;Samples;Min_cycle;Max_cycle;Signal;HPM_P1;HPM_P2
2022/02/15 04:24:30;;;;;;;;;;;;;;;2.13;94.21;99006.28;5180004;23;19934;-84
2022/02/15 04:26:55;;;;;;;;;;;;;;;2.07;94.07;99016.88;4930364;29;19927;-80
2022/02/15 04:29:21;;;;;;;;;;;;;;;2.04;94.20;99017.78;4933395;29;20271;-81
2022/02/15 04:31:46;;;;;;;;;;;;;;;1.92;93.97;99021.53;4932519;29;20359;-82
2022/02/15 04:34:12;;;;;;;;;;;;;;;1.90;93.47;99028.53;4932365;29;19919;-82
2022/02/15 04:36:37;;;;;;;;;;;;;;;1.84;93.61;99031.25;4932365;29;20298;-81
2022/02/15 04:39:02;;;;;;;;;;;;;;;1.77;93.02;99040.09;4913635;29;19919;-84
2022/02/15 04:41:27;;;;;;;;;;;;;;;1.65;92.91;99035.97;4931255;29;19962;-81
2022/02/15 04:43:53;;;;;;;;;;;;;;;1.57;92.42;99033.50;4932864;29;19919;-82
2022/02/15 04:46:18;;;;;;;;;;;;;;;1.43;92.08;99030.28;4931740;29;19925;-81
2022/02/15 04:48:43;;;;;;;;;;;;;;;1.42;91.31;99041.59;4932139;29;20202;-81
2022/02/15 04:51:09;;;;;;;;;;;;;;;1.34;90.98;99046.09;4932477;29;19934;-80
2022/02/15 04:53:35;;;;;;;;;;;;;;;1.21;90.39;99054.16;4931110;29;20385;-80
2022/02/15 04:56:02;;;;;;;;;;;;;;;1.34;90.85;99060.03;4931999;29;19974;-83
2022/02/15 04:58:28;;;;;;;;;;;;;;;1.56;92.21;99063.09;4931096;29;20191;-81
2022/02/15 05:00:53;;;;;;;;;;;;;;;1.91;94.56;99063.34;4932379;29;20429;-81
2022/02/15 05:03:18;;;;;;;;;;;;;;;2.10;96.38;99069.09;4930531;29;19922;-86
2022/02/15 05:05:43;;;;;;;;;;;;;;;2.42;99.57;99080.63;4913742;29;19923;-81
2022/02/15 05:08:09;;;;;;;;;;;;;;;2.54;100.00;99081.25;4930236;29;20017;-81
2022/02/15 05:10:34;;;;;;;;;;;;;;;2.57;100.00;99082.94;4914284;29;20315;-81
2022/02/15 05:13:01;;;;;;;;;;;;;;;2.59;100.00;99093.38;4930496;29;19929;-80
2022/02/15 05:15:26;;;;;;;;;;;;;;;2.60;100.00;99095.94;4914191;29;19926;-80
2022/02/15 05:17:52;;;;;;;;;;;;;;;2.60;100.00;99111.66;4913545;29;19919;-80
2022/02/15 05:20:17;;;;;;;;;;;;;;;2.62;100.00;99117.69;4930631;29;19933;-80
2022/02/15 05:22:43;;;;;;;;;;;;;;;2.62;100.00;99122.94;4913315;29;20308;-80
2022/02/15 05:25:10;;;;;;;;;;;;;;;2.63;100.00;99122.06;4930915;29;20515;-83
2022/02/15 05:27:35;;;;;;;;;;;;;;;2.62;100.00;99127.31;4929307;29;20078;-80
2022/02/15 05:30:00;;;;;;;;;;;;;;;2.63;100.00;99132.50;4914232;29;19927;-80
2022/02/15 05:32:27;;;;;;;;;;;;;;;2.58;100.00;99136.94;4912549;29;19919;-80
2022/02/15 05:34:52;;;;;;;;;;;;;;;2.62;100.00;99138.63;4929509;29;19919;-80
2022/02/15 05:37:18;;;;;;;;;;;;;;;2.59;100.00;99145.69;4913289;29;19918;-80
2022/02/15 05:39:43;;;;;;;;;;;;;;;2.59;100.00;99143.06;4927630;29;19922;-80
2022/02/15 05:42:08;;;;;;;;;;;;;;;2.57;100.00;99143.09;4927783;29;19927;-80
2022/02/15 05:44:33;;;;;;;;;;;;;;;2.58;100.00;99150.03;4909934;29;19978;-80
2022/02/15 05:46:59;;;;;;;;;;;;;;;2.61;100.00;99149.97;4927331;29;19926;-80
2022/02/15 05:49:24;;;;;;;;;;;;;;;2.62;100.00;99158.69;4909847;29;19929;-80
2022/02/15 09:00:26;;;;;;;;;;;;;;;3.15;79.86;99417.63;4915815;29;19938;-84
2022/02/15 09:02:51;;;;;;;;;;;;;;;3.13;79.53;99420.28;4928091;29;19922;-85
2022/02/15 09:05:17;;;;;;;;;;;;;;;3.15;79.70;99428.94;4926234;29;19982;-80
2022/02/15 09:07:42;;;;;;;;;;;;;;;3.64;81.17;99427.16;4922985;29;19929;-84
2022/02/15 09:10:07;;;;;;;;;;;;;;;3.53;81.66;99429.97;4918609;29;19994;-80
2022/02/15 09:12:33;;;;;;;;;;;;;;;3.36;81.34;99427.69;4920758;29;19934;-80
2022/02/15 09:14:58;;;;;;;;;;;;;;;3.30;80.63;99429.56;4925969;29;20393;-80
2022/02/15 09:17:23;;;;;;;;;;;;;;;3.32;80.27;99425.16;4924138;29;19970;-79
2022/02/15 09:19:49;;;;;;;;;;;;;;;3.27;79.71;99425.22;4923304;29;19934;-80
2022/02/15 09:22:15;;;;;;;;;;;;;;;3.30;79.51;99425.16;4922928;29;20013;-80
2022/02/15 09:24:40;;;;;;;;;;;;;;;3.30;79.37;99430.41;4926601;29;19927;-81
2022/02/15 09:27:06;;;;;;;;;;;;;;;3.31;79.23;99434.75;4908233;29;20013;-82
2022/02/15 09:29:31;;;;;;;;;;;;;;;3.38;79.03;99431.16;4922562;29;19922;-80
2022/02/15 09:31:56;;;;;;;;;;;;;;;3.36;78.75;99432.91;4923379;29;19930;-80
2022/02/15 09:34:23;;;;;;;;;;;;;;;3.37;78.67;99434.66;4906564;29;21629;-79
2022/02/15 09:36:50;;;;;;;;;;;;;;;3.41;78.62;99449.41;4923234;29;20612;-79
2022/02/15 09:39:15;;;;;;;;;;;;;;;3.37;78.28;99436.41;4922912;29;20327;-80
2022/02/15 09:41:40;;;;;;;;;;;;;;;3.41;77.96;99433.69;4922337;29;19930;-84
2022/02/15 09:44:06;;;;;;;;;;;;;;;3.44;78.10;99443.25;4922876;29;19930;-85
2022/02/15 09:46:32;;;;;;;;;;;;;;;3.39;77.83;99442.50;4923337;29;19927;-83
2022/02/15 09:48:57;;;;;;;;;;;;;;;3.41;77.65;99452.03;4923270;29;20434;-84
2022/02/15 09:51:23;;;;;;;;;;;;;;;3.42;77.34;99453.75;4925329;29;19922;-80
2022/02/15 09:53:49;;;;;;;;;;;;;;;3.50;77.27;99450.16;4927316;29;19918;-82
2022/02/15 09:56:14;;;;;;;;;;;;;;;3.45;77.12;99458.94;4925302;29;19982;-83
2022/02/15 09:58:40;;;;;;;;;;;;;;;3.47;77.00;99468.53;4913848;29;20290;-82
2022/02/15 10:01:05;;;;;;;;;;;;;;;3.51;77.17;99467.56;4924366;29;19922;-87
2022/02/15 10:03:32;;;;;;;;;;;;;;;3.55;77.02;99464.00;4906558;29;19937;-81
2022/02/15 10:05:58;;;;;;;;;;;;;;;3.51;76.73;99476.31;4923344;29;19923;-80
2022/02/15 10:08:26;;;;;;;;;;;;;;;3.55;76.64;99479.72;4922490;29;19933;-80
2022/02/15 10:10:53;;;;;;;;;;;;;;;3.55;76.55;99484.97;4922317;29;20354;-80
2022/02/15 10:13:18;;;;;;;;;;;;;;;3.56;76.66;99486.72;4918931;29;19955;-80
2022/02/15 10:15:48;;;;;;;;;;;;;;;3.54;76.67;99491.97;4921348;29;19965;-79
2022/02/15 10:18:22;;;;;;;;;;;;;;;3.55;76.41;99490.22;4919619;29;20726;-85
2022/02/15 10:20:52;;;;;;;;;;;;;;;3.60;76.52;99494.44;4924834;29;20001;-82
2022/02/15 10:23:25;;;;;;;;;;;;;;;3.61;76.36;99490.09;4920435;29;19934;-84
2022/02/15 10:25:51;;;;;;;;;;;;;;;3.59;76.17;99497.09;4920718;29;19927;-81
2022/02/15 10:28:16;;;;;;;;;;;;;;;3.63;76.34;99490.91;4919499;29;20480;-81
2022/02/15 10:30:49;;;;;;;;;;;;;;;3.65;76.24;99497.00;4922280;29;19931;-80
2022/02/15 10:33:15;;;;;;;;;;;;;;;3.64;75.97;99505.75;4920058;29;19926;-80
2022/02/15 10:35:50;;;;;;;;;;;;;;;3.70;75.95;99510.88;4922034;29;19930;-80
2022/02/15 10:38:24;;;;;;;;;;;;;;;3.66;75.54;99517.06;4903904;29;20065;-80
2022/02/15 10:40:54;;;;;;;;;;;;;;;3.70;75.35;99513.50;4922401;29;20010;-80
2022/02/15 10:43:19;;;;;;;;;;;;;;;3.75;75.34;99513.41;4920262;29;19945;-81
2022/02/15 10:45:44;;;;;;;;;;;;;;;3.73;75.34;99518.66;4923182;29;20446;-80
2022/02/15 10:48:09;;;;;;;;;;;;;;;3.72;74.98;99514.34;4922677;29;20326;-81
2022/02/15 10:50:37;;;;;;;;;;;;;;;3.75;74.91;99516.91;4921711;29;20005;-80
2022/02/15 10:53:02;;;;;;;;;;;;;;;3.79;74.99;99517.69;4921721;29;19931;-85
2022/02/15 10:55:28;;;;;;;;;;;;;;;3.76;74.69;99518.59;4922864;29;19929;-80
2022/02/15 10:57:53;;;;;;;;;;;;;;;3.81;74.61;99524.66;4920718;29;20029;-80
2022/02/15 11:00:18;;;;;;;;;;;;;;;3.83;74.97;99527.25;4924406;29;19987;-80
2022/02/15 11:02:44;;;;;;;;;;;;;;;3.85;74.97;99527.22;4921928;29;19926;-81
2022/02/15 11:05:11;;;;;;;;;;;;;;;3.90;74.62;99523.59;4915437;29;20455;-79
2022/02/15 11:07:38;;;;;;;;;;;;;;;3.90;74.32;99528.84;4923062;29;19923;-81
2022/02/15 11:10:04;;;;;;;;;;;;;;;3.88;74.46;99528.00;4919595;29;19927;-82
2022/02/15 11:12:39;;;;;;;;;;;;;;;3.92;74.41;99534.03;4911652;29;19966;-79
2022/02/15 11:15:05;;;;;;;;;;;;;;;3.97;74.15;99532.19;4924378;29;19927;-83
2022/02/15 11:17:32;;;;;;;;;;;;;;;3.97;74.03;99538.31;4923157;29;19923;-86
2022/02/15 11:20:01;;;;;;;;;;;;;;;3.94;73.34;99537.50;4926950;29;20607;-86
2022/02/15 11:22:27;;;;;;;;;;;;;;;3.94;73.48;99540.13;4908444;29;19933;-83
2022/02/15 11:24:52;;;;;;;;;;;;;;;3.97;73.42;99537.44;4924444;29;19923;-81
2022/02/15 11:27:19;;;;;;;;;;;;;;;3.96;73.64;99536.56;4925538;29;20028;-81
2022/02/15 11:29:52;;;;;;;;;;;;;;;4.02;73.64;99530.38;4925247;29;19922;-80
2022/02/15 11:32:26;;;;;;;;;;;;;;;4.04;73.66;99533.81;4926222;29;19934;-81
2022/02/15 11:34:51;;;;;;;;;;;;;;;4.07;73.44;99531.13;4910556;29;20087;-81
2022/02/15 11:37:24;;;;;;;;;;;;;;;4.07;73.57;99528.50;4926670;29;19930;-80
2022/02/15 11:39:56;;;;;;;;;;;;;;;4.09;73.81;99529.31;4926699;29;19923;-81
2022/02/15 11:42:21;;;;;;;;;;;;;;;4.10;73.88;99530.19;4921474;29;19929;-85
2022/02/15 11:44:46;;;;;;;;;;;;;;;4.12;74.04;99528.41;4918007;29;19926;-83
2022/02/15 11:47:13;;;;;;;;;;;;;;;4.11;73.70;99521.44;4926836;29;20263;-88
2022/02/15 11:49:48;;;;;;;;;;;;;;;4.14;73.96;99527.47;4926667;29;19994;-80
2022/02/15 11:52:13;;;;;;;;;;;;;;;4.16;74.15;99525.69;4924549;29;20221;-80
2022/02/15 11:54:38;;;;;;;;;;;;;;;4.18;74.24;99533.53;4927101;29;20609;-83
2022/02/15 11:57:04;;;;;;;;;;;;;;;4.22;73.96;99531.72;4924901;29;20585;-86
2022/02/15 11:59:29;;;;;;;;;;;;;;;4.23;73.86;99522.91;4921071;29;20470;-80
2022/02/15 12:01:56;;;;;;;;;;;;;;;4.29;73.76;99530.66;4918422;29;19962;-80
2022/02/15 12:04:21;;;;;;;;;;;;;;;4.30;74.09;99527.16;4918496;29;19931;-80
2022/02/15 12:06:50;;;;;;;;;;;;;;;4.29;73.72;99525.41;4924100;29;19986;-80
2022/02/15 12:09:16;;;;;;;;;;;;;;;4.26;73.62;99529.00;4926172;29;19923;-82
2022/02/15 12:11:42;;;;;;;;;;;;;;;4.28;73.55;99529.81;4920919;29;19927;-83
2022/02/15 12:14:08;;;;;;;;;;;;;;;4.29;73.39;99543.78;4923780;29;19986;-81
2022/02/15 12:16:44;;;;;;;;;;;;;;;4.28;73.14;99536.81;4914927;29;20264;-86
2022/02/15 12:19:18;;;;;;;;;;;;;;;4.30;72.51;99530.63;4923911;29;19930;-79
2022/02/15 12:21:43;;;;;;;;;;;;;;;4.35;72.53;99525.28;4923521;29;19929;-81
2022/02/15 12:24:09;;;;;;;;;;;;;;;4.33;72.43;99521.84;4919461;29;19919;-83
2022/02/15 12:26:39;;;;;;;;;;;;;;;4.34;72.58;99502.56;4925297;29;19930;-82
2022/02/15 12:29:04;;;;;;;;;;;;;;;4.37;72.78;99499.88;4923305;29;19941;-81
2022/02/15 12:31:29;;;;;;;;;;;;;;;4.35;72.66;99484.16;4923348;29;19926;-81
2022/02/15 12:33:55;;;;;;;;;;;;;;;4.37;72.87;99484.13;4903782;29;19923;-83
2022/02/15 12:36:21;;;;;;;;;;;;;;;4.43;72.68;99489.25;4922546;29;20017;-81
2022/02/15 12:38:50;;;;;;;;;;;;;;;4.41;72.94;99490.19;4923105;29;19936;-82
2022/02/15 12:41:16;;;;;;;;;;;;;;;4.42;72.87;99482.28;4904942;29;20317;-82
2022/02/15 12:43:41;;;;;;;;;;;;;;;4.43;73.04;99480.53;4918991;29;19928;-81
2022/02/15 12:46:06;;;;;;;;;;;;;;;4.40;72.88;99478.81;4922231;29;19922;-81
2022/02/15 12:48:32;;;;;;;;;;;;;;;4.42;72.71;99482.28;4922380;29;19922;-80
2022/02/15 12:50:57;;;;;;;;;;;;;;;4.61;74.03;99479.22;4924562;29;19931;-80
2022/02/15 12:53:24;;;;;;;;;;;;;;;4.81;76.41;99477.00;4923917;29;20010;-79
2022/02/15 12:55:50;;;;;;;;;;;;;;;4.89;78.53;99469.78;4921491;29;19962;-85
2022/02/15 12:58:15;;;;;;;;;;;;;;;4.97;80.31;99476.63;4920998;29;20522;-80
2022/02/15 13:00:41;;;;;;;;;;;;;;;5.00;81.45;99473.94;4921043;29;20480;-81
2022/02/15 13:03:06;;;;;;;;;;;;;;;4.96;82.49;99473.13;4925016;29;20014;-80
2022/02/15 13:05:32;;;;;;;;;;;;;;;4.91;83.79;99473.28;4922049;29;20022;-84
2022/02/15 13:07:58;;;;;;;;;;;;;;;4.81;84.68;99471.75;4919732;29;19977;-80
2022/02/15 13:10:23;;;;;;;;;;;;;;;4.70;85.34;99465.91;4920634;29;19930;-79
2022/02/15 13:12:49;;;;;;;;;;;;;;;4.64;85.64;99463.41;4922083;29;20005;-83
2022/02/15 13:15:16;;;;;;;;;;;;;;;4.57;86.36;99465.31;4916692;29;20007;-83
2022/02/15 13:17:45;;;;;;;;;;;;;;;4.49;87.42;99465.50;4920247;29;19926;-85
2022/02/15 13:20:17;;;;;;;;;;;;;;;4.40;89.15;99460.47;4919451;29;20354;-79
2022/02/15 13:22:42;;;;;;;;;;;;;;;4.44;91.30;99458.66;4917033;29;20061;-82
2022/02/15 13:25:07;;;;;;;;;;;;;;;4.62;93.90;99462.59;4920346;29;20395;-81
2022/02/15 13:27:34;;;;;;;;;;;;;;;4.72;97.60;99462.34;4902914;29;19923;-80
2022/02/15 13:30:00;;;;;;;;;;;;;;;4.88;100.00;99451.44;4922848;29;20214;-80
2022/02/15 13:32:35;;;;;;;;;;;;;;;5.09;100.00;99455.31;4921795;29;19954;-80
2022/02/15 13:35:01;;;;;;;;;;;;;;;5.18;100.00;99455.06;4922999;29;20066;-84
2022/02/15 13:37:31;;;;;;;;;;;;;;;5.26;100.00;99457.50;4924733;29;19974;-85
2022/02/15 13:39:56;;;;;;;;;;;;;;;5.34;100.00;99454.66;4901932;29;19927;-86
2022/02/15 13:42:22;;;;;;;;;;;;;;;5.37;100.00;99455.44;4923894;29;19923;-80
2022/02/15 13:44:47;;;;;;;;;;;;;;;5.43;100.00;99439.50;4904129;29;19929;-80
2022/02/15 13:47:12;;;;;;;;;;;;;;;5.50;100.00;99444.59;4924840;29;20282;-80
2022/02/15 13:49:39;;;;;;;;;;;;;;;5.50;100.00;99427.06;4923200;29;20314;-83
2022/02/15 13:52:05;;;;;;;;;;;;;;;5.60;100.00;99425.03;4906555;29;20025;-81
2022/02/15 13:54:30;;;;;;;;;;;;;;;5.63;100.00;99419.69;4920377;29;20561;-82
2022/02/15 13:56:55;;;;;;;;;;;;;;;5.64;100.00;99432.78;4921697;29;19923;-81
2022/02/15 13:59:21;;;;;;;;;;;;;;;5.71;100.00;99433.50;4918725;29;20681;-82
2022/02/15 14:01:51;;;;;;;;;;;;;;;5.74;100.00;99427.28;4921871;29;19978;-80
2022/02/15 14:04:16;;;;;;;;;;;;;;;5.78;100.00;99429.78;4923445;29;19930;-83
2022/02/15 14:06:41;;;;;;;;;;;;;;;5.78;100.00;99424.53;4922207;29;19923;-83
2022/02/15 14:09:06;;;;;;;;;;;;;;;5.81;100.00;99427.06;4919534;29;19942;-80
2022/02/15 14:11:32;;;;;;;;;;;;;;;5.86;100.00;99421.66;4920288;29;20005;-81
2022/02/15 14:13:58;;;;;;;;;;;;;;;5.89;100.00;99428.59;4922214;29;20000;-83
2022/02/15 14:16:23;;;;;;;;;;;;;;;5.91;100.00;99427.66;4906113;29;19918;-85
2022/02/15 14:18:48;;;;;;;;;;;;;;;5.91;100.00;99425.03;4916937;29;19930;-85
2022/02/15 14:21:14;;;;;;;;;;;;;;;5.99;100.00;99425.69;4906113;29;20026;-84
2022/02/15 14:23:40;;;;;;;;;;;;;;;6.02;100.00;99426.53;4921692;29;19934;-83
2022/02/15 14:26:05;;;;;;;;;;;;;;;5.93;100.00;99433.72;4921925;29;19923;-83
2022/02/15 14:28:31;;;;;;;;;;;;;;;4.91;100.00;99430.38;4903585;29;19982;-83
2022/02/15 14:30:56;;;;;;;;;;;;;;;4.55;100.00;99431.25;4923000;29;20403;-80
2022/02/15 14:33:21;;;;;;;;;;;;;;;4.48;100.00;99434.06;4903208;29;20373;-80
2022/02/15 14:35:48;;;;;;;;;;;;;;;4.30;100.00;99437.97;4920166;29;19985;-82
2022/02/15 14:38:14;;;;;;;;;;;;;;;4.24;100.00;99443.34;4922689;29;19931;-81
2022/02/15 14:40:41;;;;;;;;;;;;;;;4.27;100.00;99448.53;4922341;29;19933;-80
2022/02/15 14:43:06;;;;;;;;;;;;;;;4.17;99.70;99455.75;4920674;29;19926;-81
2022/02/15 14:45:32;;;;;;;;;;;;;;;4.21;99.33;99449.53;4921495;29;19931;-80
2022/02/15 14:47:58;;;;;;;;;;;;;;;4.12;98.21;99437.50;4925008;29;19929;-80
2022/02/15 14:50:24;;;;;;;;;;;;;;;4.08;97.42;99442.81;4927799;29;20565;-85
2022/02/15 14:52:49;;;;;;;;;;;;;;;4.16;97.10;99452.28;4925378;29;19929;-81
2022/02/15 14:55:15;;;;;;;;;;;;;;;4.22;96.66;99460.91;4907663;29;20004;-84
2022/02/15 14:57:41;;;;;;;;;;;;;;;3.96;96.07;99463.16;4922678;29;19962;-82
2022/02/15 15:00:08;;;;;;;;;;;;;;;4.03;95.71;99466.53;4925929;29;19926;-81
2022/02/15 15:02:34;;;;;;;;;;;;;;;3.87;95.01;99473.00;4920226;29;20512;-82
2022/02/15 15:05:00;;;;;;;;;;;;;;;4.05;94.45;99464.72;4926374;29;19923;-87
2022/02/15 15:07:25;;;;;;;;;;;;;;;4.10;93.69;99455.03;4926080;29;19989;-80
2022/02/15 15:09:51;;;;;;;;;;;;;;;4.04;93.08;99457.78;4907908;29;20556;-80
2022/02/15 15:12:16;;;;;;;;;;;;;;;3.75;92.60;99453.13;4923557;29;19923;-81
2022/02/15 15:14:41;;;;;;;;;;;;;;;3.79;92.50;99453.03;4921975;29;20415;-80
2022/02/15 15:17:07;;;;;;;;;;;;;;;3.72;92.13;99446.19;4923333;29;19977;-79
2022/02/15 15:19:33;;;;;;;;;;;;;;;3.68;91.77;99449.75;4906901;29;19981;-80
2022/02/15 15:21:59;;;;;;;;;;;;;;;3.63;91.94;99449.00;4919470;29;19966;-80
2022/02/15 15:24:25;;;;;;;;;;;;;;;3.71;90.97;99449.69;4924041;29;20286;-79
2022/02/15 15:26:50;;;;;;;;;;;;;;;3.68;90.99;99454.16;4919585;29;20428;-82
2022/02/15 15:29:17;;;;;;;;;;;;;;;3.62;90.68;99449.88;4922322;29;19958;-81
2022/02/15 15:31:42;;;;;;;;;;;;;;;3.56;90.56;99450.88;4923329;29;19927;-83
2022/02/15 15:34:07;;;;;;;;;;;;;;;3.51;90.43;99451.84;4922784;29;20014;-80
2022/02/15 15:36:33;;;;;;;;;;;;;;;3.43;90.54;99455.50;4925233;29;20025;-83
2022/02/15 15:38:58;;;;;;;;;;;;;;;3.46;90.35;99454.56;4924072;29;19986;-80
2022/02/15 15:41:24;;;;;;;;;;;;;;;3.41;90.27;99443.31;4924979;29;19934;-80
2022/02/15 15:43:49;;;;;;;;;;;;;;;3.51;90.27;99451.84;4921695;29;19923;-80
2022/02/15 15:46:15;;;;;;;;;;;;;;;3.41;89.97;99452.03;4926520;29;20018;-80
2022/02/15 15:48:41;;;;;;;;;;;;;;;3.52;89.97;99453.59;4925751;29;19992;-83
2022/02/15 15:51:08;;;;;;;;;;;;;;;3.40;89.86;99452.94;4926596;29;19965;-81
2022/02/15 15:53:33;;;;;;;;;;;;;;;3.35;89.56;99449.53;4906587;29;19958;-84
2022/02/15 15:55:58;;;;;;;;;;;;;;;3.45;89.59;99443.22;4926420;29;20386;-80
2022/02/15 15:58:24;;;;;;;;;;;;;;;3.37;89.23;99445.13;4922857;29;19930;-81
2022/02/15 16:00:49;;;;;;;;;;;;;;;3.39;89.04;99438.09;4922922;29;19933;-81
2022/02/15 16:03:14;;;;;;;;;;;;;;;3.37;88.82;99439.91;4917550;29;19990;-79
2022/02/15 16:05:40;;;;;;;;;;;;;;;3.42;88.64;99442.44;4924741;29;19933;-79
2022/02/15 16:08:05;;;;;;;;;;;;;;;3.32;88.73;99438.25;4918175;29;19933;-81
2022/02/15 16:10:31;;;;;;;;;;;;;;;3.23;88.73;99434.91;4922279;29;20005;-84
2022/02/15 16:12:56;;;;;;;;;;;;;;;3.23;88.81;99428.81;4921387;29;20430;-81
2022/02/15 16:15:22;;;;;;;;;;;;;;;3.22;88.75;99430.59;4922932;29;19927;-81
2022/02/15 16:17:47;;;;;;;;;;;;;;;3.24;88.46;99420.94;4924814;29;19926;-81
2022/02/15 16:20:12;;;;;;;;;;;;;;;3.30;88.66;99426.94;4914357;29;20618;-82
2022/02/15 16:22:38;;;;;;;;;;;;;;;3.20;88.33;99426.25;4911619;29;19927;-80
2022/02/15 16:25:06;;;;;;;;;;;;;;;3.16;88.50;99435.03;4924035;29;19930;-79
2022/02/15 16:27:32;;;;;;;;;;;;;;;3.25;88.21;99440.97;4917383;29;19938;-82
2022/02/15 16:29:57;;;;;;;;;;;;;;;3.15;88.20;99436.81;4921811;29;19938;-80
2022/02/15 16:32:22;;;;;;;;;;;;;;;3.16;88.21;99419.34;4921652;29;19927;-81
2022/02/15 16:34:50;;;;;;;;;;;;;;;3.21;87.86;99407.91;4919110;29;19926;-81
2022/02/15 16:37:17;;;;;;;;;;;;;;;3.14;87.74;99410.66;4922290;29;20219;-80
2022/02/15 16:39:43;;;;;;;;;;;;;;;3.25;87.27;99416.53;4922466;29;20013;-79
2022/02/15 16:42:08;;;;;;;;;;;;;;;3.12;87.42;99407.22;4922105;29;19926;-82
2022/02/15 16:44:37;;;;;;;;;;;;;;;3.22;87.51;99400.91;4921950;29;20327;-80
2022/02/15 16:47:05;;;;;;;;;;;;;;;3.15;87.45;99401.91;4920231;29;19931;-80
2022/02/15 16:49:31;;;;;;;;;;;;;;;3.11;87.31;99400.22;4922909;29;19938;-79
2022/02/15 16:51:56;;;;;;;;;;;;;;;3.14;87.13;99401.03;4919584;29;19923;-79
2022/02/15 16:54:21;;;;;;;;;;;;;;;3.16;87.04;99403.63;4921170;29;20850;-79
2022/02/15 16:56:48;;;;;;;;;;;;;;;3.16;86.75;99414.09;4919398;29;20426;-81
2022/02/15 16:59:13;;;;;;;;;;;;;;;3.15;86.69;99409.78;4921757;29;19927;-80
2022/02/15 17:01:39;;;;;;;;;;;;;;;3.16;86.88;99414.97;4914759;29;19934;-79
2022/02/15 17:04:04;;;;;;;;;;;;;;;3.09;86.82;99419.47;4918836;29;19989;-82
2022/02/15 17:06:31;;;;;;;;;;;;;;;3.28;86.63;99419.13;4920809;29;19937;-79
2022/02/15 17:08:56;;;;;;;;;;;;;;;3.21;86.36;99421.00;4915692;29;20774;-79
2022/02/15 17:11:23;;;;;;;;;;;;;;;3.09;86.07;99419.47;4919980;29;20009;-79
2022/02/15 17:13:48;;;;;;;;;;;;;;;3.06;86.25;99409.06;4904962;29;19955;-79
2022/02/15 17:16:13;;;;;;;;;;;;;;;3.08;86.32;99409.03;4922296;29;20031;-79
2022/02/15 17:18:39;;;;;;;;;;;;;;;3.05;85.80;99412.56;4923677;29;19981;-80
2022/02/15 17:21:05;;;;;;;;;;;;;;;3.29;85.39;99418.22;4922804;29;19927;-79
2022/02/15 17:23:31;;;;;;;;;;;;;;;3.25;84.95;99413.94;4923753;29;20684;-79
2022/02/15 17:25:58;;;;;;;;;;;;;;;3.20;85.27;99402.69;4925579;29;19919;-79
2022/02/15 17:28:24;;;;;;;;;;;;;;;3.13;84.82;99409.81;4905068;29;19922;-79
2022/02/15 17:30:49;;;;;;;;;;;;;;;3.07;84.99;99410.75;4923235;29;19934;-79
2022/02/15 17:33:15;;;;;;;;;;;;;;;3.17;85.04;99400.13;4921492;29;19922;-79
2022/02/15 17:35:40;;;;;;;;;;;;;;;3.24;84.87;99393.91;4920360;29;19936;-79
2022/02/15 17:38:06;;;;;;;;;;;;;;;3.26;84.55;99394.72;4900183;29;20303;-79
2022/02/15 17:40:31;;;;;;;;;;;;;;;3.20;84.70;99394.81;4923567;29;19923;-83
2022/02/15 17:42:56;;;;;;;;;;;;;;;3.28;84.46;99398.16;4917556;29;20090;-79
2022/02/15 17:45:22;;;;;;;;;;;;;;;3.20;84.68;99390.44;4925836;29;19919;-79
2022/02/15 17:47:48;;;;;;;;;;;;;;;3.30;84.36;99400.75;4922671;29;19927;-78
2022/02/15 17:50:13;;;;;;;;;;;;;;;3.24;84.21;99391.28;4923338;29;19986;-79
2022/02/15 17:52:38;;;;;;;;;;;;;;;3.31;83.88;99392.88;4922674;29;19923;-79
2022/02/15 17:55:04;;;;;;;;;;;;;;;3.27;83.50;99401.66;4923514;29;19927;-80
2022/02/15 17:57:29;;;;;;;;;;;;;;;3.17;83.52;99400.97;4904717;29;19929;-79
2022/02/15 17:59:54;;;;;;;;;;;;;;;3.15;83.75;99409.78;4920616;29;20013;-80
2022/02/15 18:02:19;;;;;;;;;;;;;;;3.24;83.61;99413.06;4901834;29;19938;-80
2022/02/15 18:04:45;;;;;;;;;;;;;;;3.18;83.61;99412.34;4905585;29;20013;-79
2022/02/15 18:07:10;;;;;;;;;;;;;;;3.23;83.29;99415.72;4920810;29;19967;-79
2022/02/15 18:09:36;;;;;;;;;;;;;;;3.26;83.20;99410.44;4921671;29;19978;-79
2022/02/15 18:12:01;;;;;;;;;;;;;;;3.26;83.12;99413.03;4921356;29;19926;-79
2022/02/15 18:14:26;;;;;;;;;;;;;;;3.24;82.82;99407.84;4920830;29;20557;-81
2022/02/15 18:16:51;;;;;;;;;;;;;;;3.23;82.70;99415.72;4907870;29;20008;-79
2022/02/15 18:19:17;;;;;;;;;;;;;;;3.17;82.58;99415.84;4923571;29;20001;-80
2022/02/15 18:21:46;;;;;;;;;;;;;;;3.10;82.60;99412.47;4918470;29;19923;-81
2022/02/15 18:24:11;;;;;;;;;;;;;;;3.09;82.73;99411.63;4923034;29;19926;-81
2022/02/15 18:26:37;;;;;;;;;;;;;;;3.12;82.60;99413.28;4924927;29;20018;-79
2022/02/15 18:29:02;;;;;;;;;;;;;;;3.20;82.51;99407.94;4905650;29;19923;-80
2022/02/15 18:31:28;;;;;;;;;;;;;;;3.22;82.18;99406.13;4922447;29;20578;-79
2022/02/15 18:33:54;;;;;;;;;;;;;;;3.19;82.08;99403.56;4921002;29;20338;-80
2022/02/15 18:36:19;;;;;;;;;;;;;;;3.08;82.25;99403.78;4922971;29;20021;-79
2022/02/15 18:38:45;;;;;;;;;;;;;;;3.08;82.19;99407.25;4924267;29;20010;-80
2022/02/15 18:41:12;;;;;;;;;;;;;;;3.07;82.05;99409.91;4921792;29;20362;-79
2022/02/15 18:43:37;;;;;;;;;;;;;;;3.13;82.20;99399.31;4919479;29;19927;-82
2022/02/15 18:46:04;;;;;;;;;;;;;;;3.05;81.78;99407.31;4924005;29;20325;-79
2022/02/15 18:48:29;;;;;;;;;;;;;;;3.06;81.81;99405.56;4923334;29;20017;-79
2022/02/15 18:50:54;;;;;;;;;;;;;;;3.04;81.64;99405.56;4917930;29;20099;-80
2022/02/15 18:53:19;;;;;;;;;;;;;;;3.05;81.66;99409.09;4925399;29;19982;-81
2022/02/15 18:55:44;;;;;;;;;;;;;;;3.16;81.50;99403.63;4921582;29;19926;-79
2022/02/15 18:58:10;;;;;;;;;;;;;;;3.19;81.16;99387.84;4906154;29;20358;-80
2022/02/15 19:00:38;;;;;;;;;;;;;;;3.19;81.07;99391.34;4921544;29;20017;-81
2022/02/15 19:03:03;;;;;;;;;;;;;;;3.08;81.12;99386.31;4904463;29;19986;-80
2022/02/15 19:05:29;;;;;;;;;;;;;;;3.07;83.87;99399.44;4919045;29;20453;-79
2022/02/15 19:07:54;;;;;;;;;;;;;;;3.04;81.62;99391.63;4918885;29;19934;-80
2022/02/15 19:10:19;;;;;;;;;;;;;;;3.05;81.20;99391.59;4923794;29;19946;-79
2022/02/15 19:12:45;;;;;;;;;;;;;;;3.02;81.13;99391.66;4921382;29;19923;-80
2022/02/15 19:15:11;;;;;;;;;;;;;;;3.02;80.85;99390.81;4925985;29;19969;-79
2022/02/15 19:17:37;;;;;;;;;;;;;;;3.03;80.81;99385.56;4922916;29;19961;-80
2022/02/15 19:20:03;;;;;;;;;;;;;;;3.05;80.86;99386.38;4922696;29;19958;-79
2022/02/15 19:22:28;;;;;;;;;;;;;;;3.09;80.59;99387.16;4920876;29;20010;-79
2022/02/15 19:24:55;;;;;;;;;;;;;;;3.06;80.40;99392.47;4925808;29;20399;-82
2022/02/15 19:27:21;;;;;;;;;;;;;;;3.04;80.40;99395.09;4923162;29;19930;-80
2022/02/15 19:29:46;;;;;;;;;;;;;;;3.04;80.56;99389.88;4919721;29;19933;-82
2022/02/15 19:32:12;;;;;;;;;;;;;;;3.03;80.50;99393.41;4922759;29;19927;-80
2022/02/15 19:34:39;;;;;;;;;;;;;;;3.01;80.46;99387.31;4924789;29;19931;-80
2022/02/15 19:37:06;;;;;;;;;;;;;;;3.06;80.20;99387.22;4925826;29;19922;-81
2022/02/15 19:39:32;;;;;;;;;;;;;;;3.04;80.10;99379.41;4924325;29;19926;-80
2022/02/15 19:41:57;;;;;;;;;;;;;;;3.06;80.07;99377.63;4911022;29;20415;-84
2022/02/15 19:44:22;;;;;;;;;;;;;;;3.04;79.97;99387.25;4927780;29;19934;-81
2022/02/15 19:46:47;;;;;;;;;;;;;;;3.06;79.95;99377.63;4927949;29;20490;-80
2022/02/15 19:49:15;;;;;;;;;;;;;;;3.05;79.87;99378.53;4926902;29;19923;-83
2022/02/15 19:51:41;;;;;;;;;;;;;;;3.04;79.53;99378.53;4923164;29;20298;-83
2022/02/15 19:54:07;;;;;;;;;;;;;;;3.03;79.15;99377.69;4924204;29;19919;-80
2022/02/15 19:56:34;;;;;;;;;;;;;;;3.03;78.92;99376.81;4928062;29;19927;-80
2022/02/15 19:59:00;;;;;;;;;;;;;;;3.06;78.72;99372.41;4924885;29;19927;-82
2022/02/15 20:01:25;;;;;;;;;;;;;;;3.04;78.31;99373.31;4924404;29;19950;-80
2022/02/15 20:03:50;;;;;;;;;;;;;;;3.02;78.29;99365.50;4927270;29;19974;-82
2022/02/15 20:06:17;;;;;;;;;;;;;;;3.03;78.14;99372.47;4928754;29;19931;-79
2022/02/15 20:08:42;;;;;;;;;;;;;;;3.02;77.90;99369.88;4928722;29;20278;-79
2022/02/15 20:11:08;;;;;;;;;;;;;;;3.03;77.93;99359.38;4916323;29;19931;-79
2022/02/15 20:13:34;;;;;;;;;;;;;;;3.01;77.68;99355.03;4928726;29;20519;-82
2022/02/15 20:15:59;;;;;;;;;;;;;;;3.03;77.48;99355.88;4930003;29;20005;-80
2022/02/15 20:18:25;;;;;;;;;;;;;;;3.06;77.52;99355.81;4929246;29;20528;-81
2022/02/15 20:20:50;;;;;;;;;;;;;;;3.04;77.38;99355.84;4928761;29;19955;-79